Terminal Aerodrome Forecast
Issued by NWS

Home | Current Version | Previous Version | Graphics & Text | Print | Product List | Glossary On
Versions: 1 2 3 4 5 6 7 8 9 10 11 12 13 14 15 16
000
FTUS41 KCLE 162331
TAFFDY
TAF
KFDY 162331Z 1700/1724 27018G28KT P6SM -SHSN OVC025
     FM171200 27016KT P6SM OVC015
     FM172100 28015G25KT P6SM BKN035=

USA.gov is the U.S. government's official web portal to all federal, state and local government web resources and services.